sensor_id;sensor_type;location;lat;lon;timestamp;temperature;humidity
7704;DHT22;3894;49.700;10.770;2024-01-07T00:01:46;3.70;99.90
7704;DHT22;3894;49.700;10.770;2024-01-07T00:04:12;3.70;99.90
7704;DHT22;3894;49.700;10.770;2024-01-07T00:06:37;3.70;99.90
7704;DHT22;3894;49.700;10.770;2024-01-07T00:09:03;3.70;99.90
7704;DHT22;3894;49.700;10.770;2024-01-07T00:11:28;3.70;99.90
7704;DHT22;3894;49.700;10.770;2024-01-07T00:13:54;3.70;99.90
7704;DHT22;3894;49.700;10.770;2024-01-07T00:16:20;3.70;99.90
7704;DHT22;3894;49.700;10.770;2024-01-07T00:18:45;3.70;99.90
7704;DHT22;3894;49.700;10.770;2024-01-07T00:21:11;3.70;99.90
7704;DHT22;3894;49.700;10.770;2024-01-07T00:23:36;3.70;99.90
7704;DHT22;3894;49.700;10.770;2024-01-07T00:26:02;3.70;99.90
7704;DHT22;3894;49.700;10.770;2024-01-07T00:28:29;3.70;99.90
7704;DHT22;3894;49.700;10.770;2024-01-07T00:30:54;3.70;99.90
7704;DHT22;3894;49.700;10.770;2024-01-07T00:33:20;3.70;99.90
7704;DHT22;3894;49.700;10.770;2024-01-07T00:35:45;3.70;99.90
7704;DHT22;3894;49.700;10.770;2024-01-07T00:38:11;3.70;99.90
7704;DHT22;3894;49.700;10.770;2024-01-07T00:40:37;3.70;99.90
7704;DHT22;3894;49.700;10.770;2024-01-07T00:43:03;3.70;99.90
7704;DHT22;3894;49.700;10.770;2024-01-07T00:45:29;3.70;99.90
7704;DHT22;3894;49.700;10.770;2024-01-07T00:47:54;3.70;99.90
7704;DHT22;3894;49.700;10.770;2024-01-07T00:50:20;3.70;99.90
7704;DHT22;3894;49.700;10.770;2024-01-07T00:52:45;3.70;99.90
7704;DHT22;3894;49.700;10.770;2024-01-07T00:55:12;3.70;99.90
7704;DHT22;3894;49.700;10.770;2024-01-07T00:57:37;3.70;99.90
7704;DHT22;3894;49.700;10.770;2024-01-07T01:00:06;3.70;99.90
7704;DHT22;3894;49.700;10.770;2024-01-07T01:02:32;3.70;99.90
7704;DHT22;3894;49.700;10.770;2024-01-07T01:04:58;3.70;99.90
7704;DHT22;3894;49.700;10.770;2024-01-07T01:07:23;3.70;99.90
7704;DHT22;3894;49.700;10.770;2024-01-07T01:09:49;3.70;99.90
7704;DHT22;3894;49.700;10.770;2024-01-07T01:12:14;3.70;99.90
7704;DHT22;3894;49.700;10.770;2024-01-07T01:14:41;3.70;99.90
7704;DHT22;3894;49.700;10.770;2024-01-07T01:17:06;3.70;99.90
7704;DHT22;3894;49.700;10.770;2024-01-07T01:19:32;3.70;99.90
7704;DHT22;3894;49.700;10.770;2024-01-07T01:21:57;3.70;99.90
7704;DHT22;3894;49.700;10.770;2024-01-07T01:24:23;3.70;99.90
7704;DHT22;3894;49.700;10.770;2024-01-07T01:26:48;3.70;99.90
7704;DHT22;3894;49.700;10.770;2024-01-07T01:29:14;3.70;99.90
7704;DHT22;3894;49.700;10.770;2024-01-07T01:31:40;3.70;99.90
7704;DHT22;3894;49.700;10.770;2024-01-07T01:34:05;3.70;99.90
7704;DHT22;3894;49.700;10.770;2024-01-07T01:36:31;3.70;99.90
7704;DHT22;3894;49.700;10.770;2024-01-07T01:38:57;3.70;99.90
7704;DHT22;3894;49.700;10.770;2024-01-07T01:41:22;3.60;99.90
7704;DHT22;3894;49.700;10.770;2024-01-07T01:43:48;3.70;99.90
7704;DHT22;3894;49.700;10.770;2024-01-07T01:46:14;3.60;99.90
7704;DHT22;3894;49.700;10.770;2024-01-07T01:48:40;3.60;99.90
7704;DHT22;3894;49.700;10.770;2024-01-07T01:51:06;3.60;99.90
7704;DHT22;3894;49.700;10.770;2024-01-07T01:53:33;3.60;99.90
7704;DHT22;3894;49.700;10.770;2024-01-07T01:56:00;3.60;99.90
7704;DHT22;3894;49.700;10.770;2024-01-07T01:58:28;3.60;99.90
7704;DHT22;3894;49.700;10.770;2024-01-07T02:00:55;3.60;99.90
7704;DHT22;3894;49.700;10.770;2024-01-07T02:03:20;3.60;99.90
7704;DHT22;3894;49.700;10.770;2024-01-07T02:05:48;3.60;99.90
7704;DHT22;3894;49.700;10.770;2024-01-07T02:08:14;3.60;99.90
7704;DHT22;3894;49.700;10.770;2024-01-07T02:10:40;3.60;99.90
7704;DHT22;3894;49.700;10.770;2024-01-07T02:13:06;3.60;99.90
7704;DHT22;3894;49.700;10.770;2024-01-07T02:15:32;3.60;99.90
7704;DHT22;3894;49.700;10.770;2024-01-07T02:17:58;3.60;99.90
7704;DHT22;3894;49.700;10.770;2024-01-07T02:20:24;3.60;99.90
7704;DHT22;3894;49.700;10.770;2024-01-07T02:22:49;3.60;99.90
7704;DHT22;3894;49.700;10.770;2024-01-07T02:25:15;3.60;99.90
7704;DHT22;3894;49.700;10.770;2024-01-07T02:27:41;3.50;99.90
7704;DHT22;3894;49.700;10.770;2024-01-07T02:30:07;3.50;99.90
7704;DHT22;3894;49.700;10.770;2024-01-07T02:32:32;3.50;99.90
7704;DHT22;3894;49.700;10.770;2024-01-07T02:35:00;3.50;99.90
7704;DHT22;3894;49.700;10.770;2024-01-07T02:37:25;3.50;99.90
7704;DHT22;3894;49.700;10.770;2024-01-07T02:39:51;3.50;99.90
7704;DHT22;3894;49.700;10.770;2024-01-07T02:42:17;3.50;99.90
7704;DHT22;3894;49.700;10.770;2024-01-07T02:44:42;3.40;99.90
7704;DHT22;3894;49.700;10.770;2024-01-07T02:47:08;3.40;99.90
7704;DHT22;3894;49.700;10.770;2024-01-07T02:49:33;3.40;99.90
7704;DHT22;3894;49.700;10.770;2024-01-07T02:51:59;3.40;99.90
7704;DHT22;3894;49.700;10.770;2024-01-07T02:54:24;3.30;99.90
7704;DHT22;3894;49.700;10.770;2024-01-07T02:56:50;3.30;99.90
7704;DHT22;3894;49.700;10.770;2024-01-07T02:59:16;3.30;99.90
7704;DHT22;3894;49.700;10.770;2024-01-07T03:01:41;3.30;99.90
7704;DHT22;3894;49.700;10.770;2024-01-07T03:04:09;3.30;99.90
7704;DHT22;3894;49.700;10.770;2024-01-07T03:06:35;3.30;99.90
7704;DHT22;3894;49.700;10.770;2024-01-07T03:09:01;3.30;99.90
7704;DHT22;3894;49.700;10.770;2024-01-07T03:11:26;3.30;99.90
7704;DHT22;3894;49.700;10.770;2024-01-07T03:13:52;3.30;99.90
7704;DHT22;3894;49.700;10.770;2024-01-07T03:16:25;3.30;99.90
7704;DHT22;3894;49.700;10.770;2024-01-07T03:18:51;3.30;99.90
7704;DHT22;3894;49.700;10.770;2024-01-07T03:21:20;3.30;99.90
7704;DHT22;3894;49.700;10.770;2024-01-07T03:23:46;3.30;99.90
7704;DHT22;3894;49.700;10.770;2024-01-07T03:26:13;3.20;99.90
7704;DHT22;3894;49.700;10.770;2024-01-07T03:28:39;3.30;99.90
7704;DHT22;3894;49.700;10.770;2024-01-07T03:31:15;3.20;99.90
7704;DHT22;3894;49.700;10.770;2024-01-07T03:33:42;3.20;99.90
7704;DHT22;3894;49.700;10.770;2024-01-07T03:36:08;3.20;99.90
7704;DHT22;3894;49.700;10.770;2024-01-07T03:38:35;3.20;99.90
7704;DHT22;3894;49.700;10.770;2024-01-07T03:41:00;3.20;99.90
7704;DHT22;3894;49.700;10.770;2024-01-07T03:43:26;3.20;99.90
7704;DHT22;3894;49.700;10.770;2024-01-07T03:45:51;3.20;99.90
7704;DHT22;3894;49.700;10.770;2024-01-07T03:48:17;3.20;99.90
7704;DHT22;3894;49.700;10.770;2024-01-07T03:50:42;3.20;99.90
7704;DHT22;3894;49.700;10.770;2024-01-07T03:53:09;3.20;99.90
7704;DHT22;3894;49.700;10.770;2024-01-07T03:55:34;3.20;99.90
7704;DHT22;3894;49.700;10.770;2024-01-07T03:58:00;3.20;99.90
7704;DHT22;3894;49.700;10.770;2024-01-07T04:00:25;3.10;99.90
7704;DHT22;3894;49.700;10.770;2024-01-07T04:02:51;3.10;99.90
7704;DHT22;3894;49.700;10.770;2024-01-07T04:05:16;3.10;99.90
7704;DHT22;3894;49.700;10.770;2024-01-07T04:07:42;3.10;99.90
7704;DHT22;3894;49.700;10.770;2024-01-07T04:10:07;3.10;99.90
7704;DHT22;3894;49.700;10.770;2024-01-07T04:12:33;3.10;99.90
7704;DHT22;3894;49.700;10.770;2024-01-07T04:14:59;3.10;99.90
7704;DHT22;3894;49.700;10.770;2024-01-07T04:17:24;3.10;99.90
7704;DHT22;3894;49.700;10.770;2024-01-07T04:19:51;3.10;99.90
7704;DHT22;3894;49.700;10.770;2024-01-07T04:22:17;3.10;99.90
7704;DHT22;3894;49.700;10.770;2024-01-07T04:24:42;3.10;99.90
7704;DHT22;3894;49.700;10.770;2024-01-07T04:27:08;3.10;99.90
7704;DHT22;3894;49.700;10.770;2024-01-07T04:29:33;3.00;99.90
7704;DHT22;3894;49.700;10.770;2024-01-07T04:31:59;3.00;99.90
7704;DHT22;3894;49.700;10.770;2024-01-07T04:34:24;3.00;99.90
7704;DHT22;3894;49.700;10.770;2024-01-07T04:36:50;3.00;99.90
7704;DHT22;3894;49.700;10.770;2024-01-07T04:39:16;3.00;99.90
7704;DHT22;3894;49.700;10.770;2024-01-07T04:41:42;3.00;99.90
7704;DHT22;3894;49.700;10.770;2024-01-07T04:44:07;3.00;99.90
7704;DHT22;3894;49.700;10.770;2024-01-07T04:46:38;3.00;99.90
7704;DHT22;3894;49.700;10.770;2024-01-07T04:49:04;2.90;99.90
7704;DHT22;3894;49.700;10.770;2024-01-07T04:51:32;2.90;99.90
7704;DHT22;3894;49.700;10.770;2024-01-07T04:53:58;2.90;99.90
7704;DHT22;3894;49.700;10.770;2024-01-07T04:56:23;2.90;99.90
7704;DHT22;3894;49.700;10.770;2024-01-07T04:58:49;2.90;99.90
7704;DHT22;3894;49.700;10.770;2024-01-07T05:01:14;2.80;99.90
7704;DHT22;3894;49.700;10.770;2024-01-07T05:03:40;2.80;99.90
7704;DHT22;3894;49.700;10.770;2024-01-07T05:06:08;2.80;99.90
7704;DHT22;3894;49.700;10.770;2024-01-07T05:08:34;2.80;99.90
7704;DHT22;3894;49.700;10.770;2024-01-07T05:11:00;2.80;99.90
7704;DHT22;3894;49.700;10.770;2024-01-07T05:13:25;2.70;99.90
7704;DHT22;3894;49.700;10.770;2024-01-07T05:15:51;2.70;99.90
7704;DHT22;3894;49.700;10.770;2024-01-07T05:18:25;2.70;99.90
7704;DHT22;3894;49.700;10.770;2024-01-07T05:20:51;2.60;99.90
7704;DHT22;3894;49.700;10.770;2024-01-07T05:23:17;2.60;99.90
7704;DHT22;3894;49.700;10.770;2024-01-07T05:25:43;2.60;99.90
7704;DHT22;3894;49.700;10.770;2024-01-07T05:28:09;2.60;99.90
7704;DHT22;3894;49.700;10.770;2024-01-07T05:30:35;2.60;99.90
7704;DHT22;3894;49.700;10.770;2024-01-07T05:33:01;2.50;99.90
7704;DHT22;3894;49.700;10.770;2024-01-07T05:35:26;2.50;99.90
7704;DHT22;3894;49.700;10.770;2024-01-07T05:37:52;2.50;99.90
7704;DHT22;3894;49.700;10.770;2024-01-07T05:40:17;2.50;99.90
7704;DHT22;3894;49.700;10.770;2024-01-07T05:42:43;2.50;99.90
7704;DHT22;3894;49.700;10.770;2024-01-07T05:45:08;2.50;99.90
7704;DHT22;3894;49.700;10.770;2024-01-07T05:47:34;2.50;99.90
7704;DHT22;3894;49.700;10.770;2024-01-07T05:49:59;2.40;99.90
7704;DHT22;3894;49.700;10.770;2024-01-07T05:52:25;2.40;99.90
7704;DHT22;3894;49.700;10.770;2024-01-07T05:54:51;2.40;99.90
7704;DHT22;3894;49.700;10.770;2024-01-07T05:57:16;2.40;99.90
7704;DHT22;3894;49.700;10.770;2024-01-07T05:59:43;2.40;99.90
7704;DHT22;3894;49.700;10.770;2024-01-07T06:02:09;2.40;99.90
7704;DHT22;3894;49.700;10.770;2024-01-07T06:04:36;2.40;99.90
7704;DHT22;3894;49.700;10.770;2024-01-07T06:07:02;2.40;99.90
7704;DHT22;3894;49.700;10.770;2024-01-07T06:09:28;2.30;99.90
7704;DHT22;3894;49.700;10.770;2024-01-07T06:11:53;2.40;99.90
7704;DHT22;3894;49.700;10.770;2024-01-07T06:14:19;2.40;99.90
7704;DHT22;3894;49.700;10.770;2024-01-07T06:16:45;2.40;99.90
7704;DHT22;3894;49.700;10.770;2024-01-07T06:19:10;2.30;99.90
7704;DHT22;3894;49.700;10.770;2024-01-07T06:21:36;2.30;99.90
7704;DHT22;3894;49.700;10.770;2024-01-07T06:24:01;2.30;99.90
7704;DHT22;3894;49.700;10.770;2024-01-07T06:26:27;2.30;99.90
7704;DHT22;3894;49.700;10.770;2024-01-07T06:28:52;2.30;99.90
7704;DHT22;3894;49.700;10.770;2024-01-07T06:31:18;2.30;99.90
7704;DHT22;3894;49.700;10.770;2024-01-07T06:33:43;2.30;99.90
7704;DHT22;3894;49.700;10.770;2024-01-07T06:36:09;2.30;99.90
7704;DHT22;3894;49.700;10.770;2024-01-07T06:38:34;2.30;99.90
7704;DHT22;3894;49.700;10.770;2024-01-07T06:41:00;2.30;99.90
7704;DHT22;3894;49.700;10.770;2024-01-07T06:43:29;2.30;99.90
7704;DHT22;3894;49.700;10.770;2024-01-07T06:45:55;2.30;99.90
7704;DHT22;3894;49.700;10.770;2024-01-07T06:48:20;2.20;99.90
7704;DHT22;3894;49.700;10.770;2024-01-07T06:50:46;2.20;99.90
7704;DHT22;3894;49.700;10.770;2024-01-07T06:53:11;2.20;99.90
7704;DHT22;3894;49.700;10.770;2024-01-07T06:55:37;2.30;99.90
7704;DHT22;3894;49.700;10.770;2024-01-07T06:58:03;2.20;99.90
7704;DHT22;3894;49.700;10.770;2024-01-07T07:00:28;2.20;99.90
7704;DHT22;3894;49.700;10.770;2024-01-07T07:02:54;2.20;99.90
7704;DHT22;3894;49.700;10.770;2024-01-07T07:05:19;2.10;99.90
7704;DHT22;3894;49.700;10.770;2024-01-07T07:07:45;2.00;99.90
7704;DHT22;3894;49.700;10.770;2024-01-07T07:10:11;2.00;99.90
7704;DHT22;3894;49.700;10.770;2024-01-07T07:12:36;1.90;99.90
7704;DHT22;3894;49.700;10.770;2024-01-07T07:15:02;1.90;99.90
7704;DHT22;3894;49.700;10.770;2024-01-07T07:17:28;1.90;99.90
7704;DHT22;3894;49.700;10.770;2024-01-07T07:19:53;1.90;99.90
7704;DHT22;3894;49.700;10.770;2024-01-07T07:22:19;1.80;99.90
7704;DHT22;3894;49.700;10.770;2024-01-07T07:24:44;1.80;99.90
7704;DHT22;3894;49.700;10.770;2024-01-07T07:27:10;1.70;99.90
7704;DHT22;3894;49.700;10.770;2024-01-07T07:29:35;1.70;99.90
7704;DHT22;3894;49.700;10.770;2024-01-07T07:32:01;1.70;99.90
7704;DHT22;3894;49.700;10.770;2024-01-07T07:34:27;1.70;99.90
7704;DHT22;3894;49.700;10.770;2024-01-07T07:36:52;1.60;99.90
7704;DHT22;3894;49.700;10.770;2024-01-07T07:39:18;1.60;99.90
7704;DHT22;3894;49.700;10.770;2024-01-07T07:41:43;1.60;99.90
7704;DHT22;3894;49.700;10.770;2024-01-07T07:44:09;1.50;99.90
7704;DHT22;3894;49.700;10.770;2024-01-07T07:46:35;1.50;99.90
7704;DHT22;3894;49.700;10.770;2024-01-07T07:49:00;1.40;99.90
7704;DHT22;3894;49.700;10.770;2024-01-07T07:51:26;1.40;99.90
7704;DHT22;3894;49.700;10.770;2024-01-07T07:53:53;1.50;99.90
7704;DHT22;3894;49.700;10.770;2024-01-07T07:56:19;1.50;99.90
7704;DHT22;3894;49.700;10.770;2024-01-07T07:58:44;1.50;99.90
7704;DHT22;3894;49.700;10.770;2024-01-07T08:01:10;1.50;99.90
7704;DHT22;3894;49.700;10.770;2024-01-07T08:03:35;1.40;99.90
7704;DHT22;3894;49.700;10.770;2024-01-07T08:06:02;1.40;99.90
7704;DHT22;3894;49.700;10.770;2024-01-07T08:08:27;1.40;99.90
7704;DHT22;3894;49.700;10.770;2024-01-07T08:10:53;1.30;99.90
7704;DHT22;3894;49.700;10.770;2024-01-07T08:13:19;1.30;99.90
7704;DHT22;3894;49.700;10.770;2024-01-07T08:15:45;1.30;99.90
7704;DHT22;3894;49.700;10.770;2024-01-07T08:18:10;1.30;99.90
7704;DHT22;3894;49.700;10.770;2024-01-07T08:20:36;1.30;99.90
7704;DHT22;3894;49.700;10.770;2024-01-07T08:23:01;1.30;99.90
7704;DHT22;3894;49.700;10.770;2024-01-07T08:25:27;1.30;99.90
7704;DHT22;3894;49.700;10.770;2024-01-07T08:27:53;1.30;99.90
7704;DHT22;3894;49.700;10.770;2024-01-07T08:30:18;1.30;99.90
7704;DHT22;3894;49.700;10.770;2024-01-07T08:32:44;1.30;99.90
7704;DHT22;3894;49.700;10.770;2024-01-07T08:35:09;1.20;99.90
7704;DHT22;3894;49.700;10.770;2024-01-07T08:37:35;1.20;99.90
7704;DHT22;3894;49.700;10.770;2024-01-07T08:40:01;1.20;99.90
7704;DHT22;3894;49.700;10.770;2024-01-07T08:42:27;1.20;99.90
7704;DHT22;3894;49.700;10.770;2024-01-07T08:44:54;1.20;99.90
7704;DHT22;3894;49.700;10.770;2024-01-07T08:47:20;1.10;99.90
7704;DHT22;3894;49.700;10.770;2024-01-07T08:49:45;1.10;99.90
7704;DHT22;3894;49.700;10.770;2024-01-07T08:52:11;1.10;99.90
7704;DHT22;3894;49.700;10.770;2024-01-07T08:54:37;1.10;99.90
7704;DHT22;3894;49.700;10.770;2024-01-07T08:57:02;1.00;99.90
7704;DHT22;3894;49.700;10.770;2024-01-07T08:59:28;1.00;99.90
7704;DHT22;3894;49.700;10.770;2024-01-07T09:01:54;1.00;99.90
7704;DHT22;3894;49.700;10.770;2024-01-07T09:04:20;1.00;99.90
7704;DHT22;3894;49.700;10.770;2024-01-07T09:06:46;1.00;99.90
7704;DHT22;3894;49.700;10.770;2024-01-07T09:09:11;1.10;99.90
7704;DHT22;3894;49.700;10.770;2024-01-07T09:11:37;1.00;99.90
7704;DHT22;3894;49.700;10.770;2024-01-07T09:14:03;1.00;99.90
7704;DHT22;3894;49.700;10.770;2024-01-07T09:16:29;1.00;99.90
7704;DHT22;3894;49.700;10.770;2024-01-07T09:18:55;1.00;99.90
7704;DHT22;3894;49.700;10.770;2024-01-07T09:21:20;1.00;99.90
7704;DHT22;3894;49.700;10.770;2024-01-07T09:23:48;1.00;99.90
7704;DHT22;3894;49.700;10.770;2024-01-07T09:26:14;1.10;99.90
7704;DHT22;3894;49.700;10.770;2024-01-07T09:28:40;1.00;99.90
7704;DHT22;3894;49.700;10.770;2024-01-07T09:31:06;1.00;99.90
7704;DHT22;3894;49.700;10.770;2024-01-07T09:33:31;1.00;99.90
7704;DHT22;3894;49.700;10.770;2024-01-07T09:35:57;0.90;99.90
7704;DHT22;3894;49.700;10.770;2024-01-07T09:38:22;1.00;99.90
7704;DHT22;3894;49.700;10.770;2024-01-07T09:40:50;0.90;99.90
7704;DHT22;3894;49.700;10.770;2024-01-07T09:43:16;0.90;99.90
7704;DHT22;3894;49.700;10.770;2024-01-07T09:45:42;0.90;99.90
7704;DHT22;3894;49.700;10.770;2024-01-07T09:48:11;0.80;99.90
7704;DHT22;3894;49.700;10.770;2024-01-07T09:50:36;0.80;99.90
7704;DHT22;3894;49.700;10.770;2024-01-07T09:53:02;0.80;99.90
7704;DHT22;3894;49.700;10.770;2024-01-07T09:55:40;0.80;99.90
7704;DHT22;3894;49.700;10.770;2024-01-07T09:58:06;0.80;99.90
7704;DHT22;3894;49.700;10.770;2024-01-07T10:00:32;0.80;99.90
7704;DHT22;3894;49.700;10.770;2024-01-07T10:02:58;0.80;99.90
7704;DHT22;3894;49.700;10.770;2024-01-07T10:05:23;0.80;99.90
7704;DHT22;3894;49.700;10.770;2024-01-07T10:07:49;0.80;99.90
7704;DHT22;3894;49.700;10.770;2024-01-07T10:10:16;0.80;99.90
7704;DHT22;3894;49.700;10.770;2024-01-07T10:12:44;0.80;99.90
7704;DHT22;3894;49.700;10.770;2024-01-07T10:15:10;0.80;99.90
7704;DHT22;3894;49.700;10.770;2024-01-07T10:17:35;0.80;99.90
7704;DHT22;3894;49.700;10.770;2024-01-07T10:20:01;0.70;99.90
7704;DHT22;3894;49.700;10.770;2024-01-07T10:22:30;0.70;99.90
7704;DHT22;3894;49.700;10.770;2024-01-07T10:24:55;0.70;99.90
7704;DHT22;3894;49.700;10.770;2024-01-07T10:27:22;0.70;99.90
7704;DHT22;3894;49.700;10.770;2024-01-07T10:29:48;0.70;99.90
7704;DHT22;3894;49.700;10.770;2024-01-07T10:32:20;0.60;99.90
7704;DHT22;3894;49.700;10.770;2024-01-07T10:34:46;0.60;99.90
7704;DHT22;3894;49.700;10.770;2024-01-07T10:37:15;0.60;99.90
7704;DHT22;3894;49.700;10.770;2024-01-07T10:39:40;0.60;99.90
7704;DHT22;3894;49.700;10.770;2024-01-07T10:42:06;0.60;99.90
7704;DHT22;3894;49.700;10.770;2024-01-07T10:44:33;0.60;99.90
7704;DHT22;3894;49.700;10.770;2024-01-07T10:46:59;0.60;99.90
7704;DHT22;3894;49.700;10.770;2024-01-07T10:49:26;0.60;99.90
7704;DHT22;3894;49.700;10.770;2024-01-07T10:52:06;0.60;99.90
7704;DHT22;3894;49.700;10.770;2024-01-07T10:54:33;0.60;99.90
7704;DHT22;3894;49.700;10.770;2024-01-07T10:57:17;0.60;99.90
7704;DHT22;3894;49.700;10.770;2024-01-07T10:59:45;0.50;99.90
7704;DHT22;3894;49.700;10.770;2024-01-07T11:02:12;0.50;99.90
7704;DHT22;3894;49.700;10.770;2024-01-07T11:05:03;0.50;99.90
7704;DHT22;3894;49.700;10.770;2024-01-07T11:10:07;0.50;99.90
7704;DHT22;3894;49.700;10.770;2024-01-07T11:12:34;0.50;99.90
7704;DHT22;3894;49.700;10.770;2024-01-07T11:15:00;0.50;99.90
7704;DHT22;3894;49.700;10.770;2024-01-07T11:19:59;0.50;99.90
7704;DHT22;3894;49.700;10.770;2024-01-07T11:22:26;0.50;99.90
7704;DHT22;3894;49.700;10.770;2024-01-07T11:24:59;0.50;99.90
7704;DHT22;3894;49.700;10.770;2024-01-07T11:27:28;0.50;99.90
7704;DHT22;3894;49.700;10.770;2024-01-07T11:30:20;0.50;99.90
7704;DHT22;3894;49.700;10.770;2024-01-07T11:32:45;0.50;99.90
7704;DHT22;3894;49.700;10.770;2024-01-07T11:35:14;0.40;99.90
7704;DHT22;3894;49.700;10.770;2024-01-07T11:37:41;0.40;99.90
7704;DHT22;3894;49.700;10.770;2024-01-07T11:40:07;0.40;99.90
7704;DHT22;3894;49.700;10.770;2024-01-07T11:42:33;0.40;99.90
7704;DHT22;3894;49.700;10.770;2024-01-07T11:44:59;0.40;99.90
7704;DHT22;3894;49.700;10.770;2024-01-07T11:47:24;0.40;99.90
7704;DHT22;3894;49.700;10.770;2024-01-07T11:49:53;0.40;99.90
7704;DHT22;3894;49.700;10.770;2024-01-07T11:52:19;0.40;99.90
7704;DHT22;3894;49.700;10.770;2024-01-07T11:54:45;0.30;99.90
7704;DHT22;3894;49.700;10.770;2024-01-07T11:57:13;0.30;99.90
7704;DHT22;3894;49.700;10.770;2024-01-07T11:59:39;0.30;99.90
7704;DHT22;3894;49.700;10.770;2024-01-07T12:02:07;0.30;99.90
7704;DHT22;3894;49.700;10.770;2024-01-07T12:04:33;0.30;99.90
7704;DHT22;3894;49.700;10.770;2024-01-07T12:06:59;0.30;99.90
7704;DHT22;3894;49.700;10.770;2024-01-07T12:09:25;0.30;99.90
7704;DHT22;3894;49.700;10.770;2024-01-07T12:11:51;0.30;99.90
7704;DHT22;3894;49.700;10.770;2024-01-07T12:14:18;0.30;99.90
7704;DHT22;3894;49.700;10.770;2024-01-07T12:16:45;0.30;99.90
7704;DHT22;3894;49.700;10.770;2024-01-07T12:19:10;0.30;99.90
7704;DHT22;3894;49.700;10.770;2024-01-07T12:21:36;0.20;99.90
7704;DHT22;3894;49.700;10.770;2024-01-07T12:24:03;0.20;99.90
7704;DHT22;3894;49.700;10.770;2024-01-07T12:26:29;0.20;99.90
7704;DHT22;3894;49.700;10.770;2024-01-07T12:28:57;0.20;99.90
7704;DHT22;3894;49.700;10.770;2024-01-07T12:31:28;0.20;99.90
7704;DHT22;3894;49.700;10.770;2024-01-07T12:33:54;0.20;99.90
7704;DHT22;3894;49.700;10.770;2024-01-07T12:36:23;0.20;99.90
7704;DHT22;3894;49.700;10.770;2024-01-07T12:38:49;0.20;99.90
7704;DHT22;3894;49.700;10.770;2024-01-07T12:41:17;0.20;99.90
7704;DHT22;3894;49.700;10.770;2024-01-07T12:43:43;0.20;99.90
7704;DHT22;3894;49.700;10.770;2024-01-07T12:46:08;0.20;99.90
7704;DHT22;3894;49.700;10.770;2024-01-07T12:48:34;0.20;99.90
7704;DHT22;3894;49.700;10.770;2024-01-07T12:51:00;0.20;99.90
7704;DHT22;3894;49.700;10.770;2024-01-07T12:53:26;0.20;99.90
7704;DHT22;3894;49.700;10.770;2024-01-07T12:55:53;0.20;99.90
7704;DHT22;3894;49.700;10.770;2024-01-07T12:58:19;0.10;99.90
7704;DHT22;3894;49.700;10.770;2024-01-07T13:00:44;0.20;99.90
7704;DHT22;3894;49.700;10.770;2024-01-07T13:03:10;0.20;99.90
7704;DHT22;3894;49.700;10.770;2024-01-07T13:05:43;0.20;99.90
7704;DHT22;3894;49.700;10.770;2024-01-07T13:08:09;0.20;99.90
7704;DHT22;3894;49.700;10.770;2024-01-07T13:10:34;0.30;99.90
7704;DHT22;3894;49.700;10.770;2024-01-07T13:13:00;0.30;99.90
7704;DHT22;3894;49.700;10.770;2024-01-07T13:15:25;0.20;99.90
7704;DHT22;3894;49.700;10.770;2024-01-07T13:17:51;0.20;99.90
7704;DHT22;3894;49.700;10.770;2024-01-07T13:20:16;0.20;99.90
7704;DHT22;3894;49.700;10.770;2024-01-07T13:22:45;0.20;99.90
7704;DHT22;3894;49.700;10.770;2024-01-07T13:25:12;0.20;99.90
7704;DHT22;3894;49.700;10.770;2024-01-07T13:27:38;0.10;99.90
7704;DHT22;3894;49.700;10.770;2024-01-07T13:30:04;0.10;99.90
7704;DHT22;3894;49.700;10.770;2024-01-07T13:32:30;0.10;99.90
7704;DHT22;3894;49.700;10.770;2024-01-07T13:34:56;0.00;99.90
7704;DHT22;3894;49.700;10.770;2024-01-07T13:37:21;0.10;99.90
7704;DHT22;3894;49.700;10.770;2024-01-07T13:39:47;0.10;99.90
7704;DHT22;3894;49.700;10.770;2024-01-07T13:42:15;0.10;99.90
7704;DHT22;3894;49.700;10.770;2024-01-07T13:44:40;0.10;99.90
7704;DHT22;3894;49.700;10.770;2024-01-07T13:47:12;0.00;99.90
7704;DHT22;3894;49.700;10.770;2024-01-07T13:49:39;0.00;99.90
7704;DHT22;3894;49.700;10.770;2024-01-07T13:52:05;0.00;99.90
7704;DHT22;3894;49.700;10.770;2024-01-07T13:54:31;-0.10;99.90
7704;DHT22;3894;49.700;10.770;2024-01-07T13:56:56;0.00;99.90
7704;DHT22;3894;49.700;10.770;2024-01-07T13:59:22;0.00;99.90
7704;DHT22;3894;49.700;10.770;2024-01-07T14:01:48;-0.10;99.90
7704;DHT22;3894;49.700;10.770;2024-01-07T14:04:14;-0.10;99.90
7704;DHT22;3894;49.700;10.770;2024-01-07T14:06:40;-0.10;99.90
7704;DHT22;3894;49.700;10.770;2024-01-07T14:09:06;-0.10;99.90
7704;DHT22;3894;49.700;10.770;2024-01-07T14:11:33;-0.10;99.90
7704;DHT22;3894;49.700;10.770;2024-01-07T14:13:59;-0.10;99.90
7704;DHT22;3894;49.700;10.770;2024-01-07T14:16:26;-0.10;99.90
7704;DHT22;3894;49.700;10.770;2024-01-07T14:18:52;-0.10;99.90
7704;DHT22;3894;49.700;10.770;2024-01-07T14:21:17;-0.10;99.90
7704;DHT22;3894;49.700;10.770;2024-01-07T14:23:43;-0.10;99.90
7704;DHT22;3894;49.700;10.770;2024-01-07T14:26:09;-0.20;99.90
7704;DHT22;3894;49.700;10.770;2024-01-07T14:28:34;-0.20;99.90
7704;DHT22;3894;49.700;10.770;2024-01-07T14:31:01;-0.30;99.90
7704;DHT22;3894;49.700;10.770;2024-01-07T14:33:27;-0.30;99.90
7704;DHT22;3894;49.700;10.770;2024-01-07T14:35:52;-0.30;99.90
7704;DHT22;3894;49.700;10.770;2024-01-07T14:38:18;-0.30;99.90
7704;DHT22;3894;49.700;10.770;2024-01-07T14:40:44;-0.30;99.90
7704;DHT22;3894;49.700;10.770;2024-01-07T14:43:12;-0.30;99.90
7704;DHT22;3894;49.700;10.770;2024-01-07T14:45:38;-0.30;99.90
7704;DHT22;3894;49.700;10.770;2024-01-07T14:48:04;-0.40;99.90
7704;DHT22;3894;49.700;10.770;2024-01-07T14:50:29;-0.40;99.90
7704;DHT22;3894;49.700;10.770;2024-01-07T14:52:55;-0.40;99.90
7704;DHT22;3894;49.700;10.770;2024-01-07T14:55:21;-0.50;99.90
7704;DHT22;3894;49.700;10.770;2024-01-07T14:57:46;-0.50;99.90
7704;DHT22;3894;49.700;10.770;2024-01-07T15:00:12;-0.50;99.90
7704;DHT22;3894;49.700;10.770;2024-01-07T15:02:38;-0.50;99.90
7704;DHT22;3894;49.700;10.770;2024-01-07T15:05:04;-0.50;99.90
7704;DHT22;3894;49.700;10.770;2024-01-07T15:07:30;-0.60;99.90
7704;DHT22;3894;49.700;10.770;2024-01-07T15:09:56;-0.60;99.90
7704;DHT22;3894;49.700;10.770;2024-01-07T15:12:21;-0.60;99.90
7704;DHT22;3894;49.700;10.770;2024-01-07T15:14:48;-0.60;99.90
7704;DHT22;3894;49.700;10.770;2024-01-07T15:17:14;-0.60;99.90
7704;DHT22;3894;49.700;10.770;2024-01-07T15:19:42;-0.60;99.90
7704;DHT22;3894;49.700;10.770;2024-01-07T15:22:07;-0.70;99.90
7704;DHT22;3894;49.700;10.770;2024-01-07T15:24:34;-0.70;99.90
7704;DHT22;3894;49.700;10.770;2024-01-07T15:26:59;-0.70;99.90
7704;DHT22;3894;49.700;10.770;2024-01-07T15:29:25;-0.80;99.90
7704;DHT22;3894;49.700;10.770;2024-01-07T15:31:50;-0.80;99.90
7704;DHT22;3894;49.700;10.770;2024-01-07T15:34:17;-0.80;99.90
7704;DHT22;3894;49.700;10.770;2024-01-07T15:36:42;-0.80;99.90
7704;DHT22;3894;49.700;10.770;2024-01-07T15:39:08;-0.90;99.90
7704;DHT22;3894;49.700;10.770;2024-01-07T15:41:37;-0.90;99.90
7704;DHT22;3894;49.700;10.770;2024-01-07T15:44:03;-0.90;99.90
7704;DHT22;3894;49.700;10.770;2024-01-07T15:46:29;-0.90;99.90
7704;DHT22;3894;49.700;10.770;2024-01-07T15:48:54;-0.90;99.90
7704;DHT22;3894;49.700;10.770;2024-01-07T15:51:21;-1.00;99.90
7704;DHT22;3894;49.700;10.770;2024-01-07T15:53:46;-1.00;99.90
7704;DHT22;3894;49.700;10.770;2024-01-07T15:56:12;-1.00;99.90
7704;DHT22;3894;49.700;10.770;2024-01-07T15:58:40;-1.00;99.90